sensor_id;sensor_type;location;lat;lon;timestamp;temperature;humidity
25092;DHT22;13082;52.374;4.946;2022-10-31T00:01:58;13.40;99.90
25092;DHT22;13082;52.374;4.946;2022-10-31T00:04:23;13.40;99.90
25092;DHT22;13082;52.374;4.946;2022-10-31T00:06:49;13.40;99.90
25092;DHT22;13082;52.374;4.946;2022-10-31T00:09:14;13.40;99.90
25092;DHT22;13082;52.374;4.946;2022-10-31T00:11:40;13.30;99.90
25092;DHT22;13082;52.374;4.946;2022-10-31T00:14:06;13.30;99.90
25092;DHT22;13082;52.374;4.946;2022-10-31T00:16:31;13.30;99.90
25092;DHT22;13082;52.374;4.946;2022-10-31T00:18:59;13.20;99.90
25092;DHT22;13082;52.374;4.946;2022-10-31T00:21:25;13.10;99.90
25092;DHT22;13082;52.374;4.946;2022-10-31T00:23:51;13.10;99.90
25092;DHT22;13082;52.374;4.946;2022-10-31T00:26:18;13.20;99.90
25092;DHT22;13082;52.374;4.946;2022-10-31T00:28:44;13.20;99.90
25092;DHT22;13082;52.374;4.946;2022-10-31T00:31:11;13.20;99.90
25092;DHT22;13082;52.374;4.946;2022-10-31T00:33:38;13.20;99.90
25092;DHT22;13082;52.374;4.946;2022-10-31T00:36:05;13.30;99.90
25092;DHT22;13082;52.374;4.946;2022-10-31T00:38:31;13.40;99.90
25092;DHT22;13082;52.374;4.946;2022-10-31T00:40:57;13.30;99.90
25092;DHT22;13082;52.374;4.946;2022-10-31T00:43:23;13.30;99.90
25092;DHT22;13082;52.374;4.946;2022-10-31T00:45:48;13.30;99.90
25092;DHT22;13082;52.374;4.946;2022-10-31T00:48:14;13.30;99.90
25092;DHT22;13082;52.374;4.946;2022-10-31T00:50:40;13.30;99.90
25092;DHT22;13082;52.374;4.946;2022-10-31T00:53:06;13.30;99.90
25092;DHT22;13082;52.374;4.946;2022-10-31T00:55:32;13.20;99.90
25092;DHT22;13082;52.374;4.946;2022-10-31T00:57:57;13.30;99.90
25092;DHT22;13082;52.374;4.946;2022-10-31T01:00:23;13.20;99.90
25092;DHT22;13082;52.374;4.946;2022-10-31T01:02:48;13.20;99.90
25092;DHT22;13082;52.374;4.946;2022-10-31T01:05:14;13.20;99.90
25092;DHT22;13082;52.374;4.946;2022-10-31T01:07:41;13.20;99.90
25092;DHT22;13082;52.374;4.946;2022-10-31T01:10:07;13.20;99.90
25092;DHT22;13082;52.374;4.946;2022-10-31T01:12:37;13.20;99.90
25092;DHT22;13082;52.374;4.946;2022-10-31T01:15:03;13.20;99.90
25092;DHT22;13082;52.374;4.946;2022-10-31T01:17:29;13.20;99.90
25092;DHT22;13082;52.374;4.946;2022-10-31T01:19:55;13.10;99.90
25092;DHT22;13082;52.374;4.946;2022-10-31T01:22:20;13.10;99.90
25092;DHT22;13082;52.374;4.946;2022-10-31T01:24:46;13.10;99.90
25092;DHT22;13082;52.374;4.946;2022-10-31T01:27:11;13.10;99.90
25092;DHT22;13082;52.374;4.946;2022-10-31T01:29:37;13.10;99.90
25092;DHT22;13082;52.374;4.946;2022-10-31T01:32:02;13.10;99.90
25092;DHT22;13082;52.374;4.946;2022-10-31T01:34:28;13.00;99.90
25092;DHT22;13082;52.374;4.946;2022-10-31T01:36:54;13.00;99.90
25092;DHT22;13082;52.374;4.946;2022-10-31T01:39:19;13.00;99.90
25092;DHT22;13082;52.374;4.946;2022-10-31T01:41:47;13.00;99.90
25092;DHT22;13082;52.374;4.946;2022-10-31T01:47:05;13.00;99.90
25092;DHT22;13082;52.374;4.946;2022-10-31T01:49:54;12.90;99.90
25092;DHT22;13082;52.374;4.946;2022-10-31T01:52:28;12.90;99.90
25092;DHT22;13082;52.374;4.946;2022-10-31T01:55:15;12.90;99.90
25092;DHT22;13082;52.374;4.946;2022-10-31T01:57:46;12.90;99.90
25092;DHT22;13082;52.374;4.946;2022-10-31T02:00:13;12.90;99.90
25092;DHT22;13082;52.374;4.946;2022-10-31T02:02:39;12.80;99.90
25092;DHT22;13082;52.374;4.946;2022-10-31T02:05:11;12.80;99.90
25092;DHT22;13082;52.374;4.946;2022-10-31T02:10:35;12.80;99.90
25092;DHT22;13082;52.374;4.946;2022-10-31T02:13:04;12.80;99.90
25092;DHT22;13082;52.374;4.946;2022-10-31T02:15:31;12.80;99.90
25092;DHT22;13082;52.374;4.946;2022-10-31T02:17:58;12.70;99.90
25092;DHT22;13082;52.374;4.946;2022-10-31T02:20:27;12.70;99.90
25092;DHT22;13082;52.374;4.946;2022-10-31T02:23:20;12.80;99.90
25092;DHT22;13082;52.374;4.946;2022-10-31T02:26:52;12.80;99.90
25092;DHT22;13082;52.374;4.946;2022-10-31T02:34:56;12.80;99.90
25092;DHT22;13082;52.374;4.946;2022-10-31T02:37:40;12.80;99.90
25092;DHT22;13082;52.374;4.946;2022-10-31T02:40:26;12.80;99.90
25092;DHT22;13082;52.374;4.946;2022-10-31T02:48:26;12.80;99.90
25092;DHT22;13082;52.374;4.946;2022-10-31T02:50:56;12.90;99.90
25092;DHT22;13082;52.374;4.946;2022-10-31T02:53:23;12.90;99.90
25092;DHT22;13082;52.374;4.946;2022-10-31T02:56:04;12.90;99.90
25092;DHT22;13082;52.374;4.946;2022-10-31T02:58:36;13.00;99.90
25092;DHT22;13082;52.374;4.946;2022-10-31T03:06:39;12.90;99.90
25092;DHT22;13082;52.374;4.946;2022-10-31T03:09:52;12.90;99.90
25092;DHT22;13082;52.374;4.946;2022-10-31T03:12:08;12.90;99.90
25092;DHT22;13082;52.374;4.946;2022-10-31T03:17:15;12.90;99.90
25092;DHT22;13082;52.374;4.946;2022-10-31T03:19:45;12.90;99.90
25092;DHT22;13082;52.374;4.946;2022-10-31T03:24:39;12.90;99.90
25092;DHT22;13082;52.374;4.946;2022-10-31T03:27:09;12.90;99.90
25092;DHT22;13082;52.374;4.946;2022-10-31T03:29:36;12.90;99.90
25092;DHT22;13082;52.374;4.946;2022-10-31T03:32:09;12.90;99.90
25092;DHT22;13082;52.374;4.946;2022-10-31T03:34:37;12.90;99.90
25092;DHT22;13082;52.374;4.946;2022-10-31T03:37:07;12.90;99.90
25092;DHT22;13082;52.374;4.946;2022-10-31T03:39:34;12.90;99.90
25092;DHT22;13082;52.374;4.946;2022-10-31T03:42:07;12.90;99.90
25092;DHT22;13082;52.374;4.946;2022-10-31T03:44:35;12.90;99.90
25092;DHT22;13082;52.374;4.946;2022-10-31T03:47:03;12.90;99.90
25092;DHT22;13082;52.374;4.946;2022-10-31T03:49:30;12.90;99.90
25092;DHT22;13082;52.374;4.946;2022-10-31T03:51:58;12.80;99.90
25092;DHT22;13082;52.374;4.946;2022-10-31T03:57:16;12.80;99.90
25092;DHT22;13082;52.374;4.946;2022-10-31T04:00:03;12.90;99.90
25092;DHT22;13082;52.374;4.946;2022-10-31T04:02:31;12.90;99.90
25092;DHT22;13082;52.374;4.946;2022-10-31T04:04:58;12.90;99.90
25092;DHT22;13082;52.374;4.946;2022-10-31T04:07:28;12.90;99.90
25092;DHT22;13082;52.374;4.946;2022-10-31T04:09:56;12.90;99.90
25092;DHT22;13082;52.374;4.946;2022-10-31T04:12:24;12.90;99.90
25092;DHT22;13082;52.374;4.946;2022-10-31T04:14:51;12.90;99.90
25092;DHT22;13082;52.374;4.946;2022-10-31T04:17:20;12.80;99.90
25092;DHT22;13082;52.374;4.946;2022-10-31T04:19:46;12.80;99.90
25092;DHT22;13082;52.374;4.946;2022-10-31T04:22:12;12.80;99.90
25092;DHT22;13082;52.374;4.946;2022-10-31T04:24:40;12.70;99.90
25092;DHT22;13082;52.374;4.946;2022-10-31T04:27:05;12.70;99.90
25092;DHT22;13082;52.374;4.946;2022-10-31T04:29:31;12.70;99.90
25092;DHT22;13082;52.374;4.946;2022-10-31T04:31:57;12.80;99.90
25092;DHT22;13082;52.374;4.946;2022-10-31T04:34:22;12.80;99.90
25092;DHT22;13082;52.374;4.946;2022-10-31T04:36:48;12.80;99.90
25092;DHT22;13082;52.374;4.946;2022-10-31T04:39:13;12.80;99.90
25092;DHT22;13082;52.374;4.946;2022-10-31T04:41:39;12.90;99.90
25092;DHT22;13082;52.374;4.946;2022-10-31T04:44:05;12.90;99.90
25092;DHT22;13082;52.374;4.946;2022-10-31T04:46:30;12.90;99.90
25092;DHT22;13082;52.374;4.946;2022-10-31T04:48:56;12.90;99.90
25092;DHT22;13082;52.374;4.946;2022-10-31T04:51:22;12.90;99.90
25092;DHT22;13082;52.374;4.946;2022-10-31T04:53:47;12.90;99.90
25092;DHT22;13082;52.374;4.946;2022-10-31T04:56:13;12.90;99.90
25092;DHT22;13082;52.374;4.946;2022-10-31T04:58:38;12.80;99.90
25092;DHT22;13082;52.374;4.946;2022-10-31T05:01:04;12.80;99.90
25092;DHT22;13082;52.374;4.946;2022-10-31T05:03:29;12.80;99.90
25092;DHT22;13082;52.374;4.946;2022-10-31T05:05:55;12.80;99.90
25092;DHT22;13082;52.374;4.946;2022-10-31T05:08:21;12.80;99.90
25092;DHT22;13082;52.374;4.946;2022-10-31T05:10:46;12.90;99.90
25092;DHT22;13082;52.374;4.946;2022-10-31T05:13:12;12.90;99.90
25092;DHT22;13082;52.374;4.946;2022-10-31T05:15:38;12.80;99.90
25092;DHT22;13082;52.374;4.946;2022-10-31T05:18:03;12.80;99.90
25092;DHT22;13082;52.374;4.946;2022-10-31T05:20:30;12.80;99.90
25092;DHT22;13082;52.374;4.946;2022-10-31T05:22:58;12.80;99.90
25092;DHT22;13082;52.374;4.946;2022-10-31T05:25:26;12.70;99.90
25092;DHT22;13082;52.374;4.946;2022-10-31T05:27:52;12.60;99.90
25092;DHT22;13082;52.374;4.946;2022-10-31T05:30:21;12.50;99.90
25092;DHT22;13082;52.374;4.946;2022-10-31T05:32:48;12.60;99.90
25092;DHT22;13082;52.374;4.946;2022-10-31T05:35:20;12.50;99.90
25092;DHT22;13082;52.374;4.946;2022-10-31T05:37:46;12.50;99.90
25092;DHT22;13082;52.374;4.946;2022-10-31T05:40:13;12.50;99.90
25092;DHT22;13082;52.374;4.946;2022-10-31T05:42:39;12.50;99.90
25092;DHT22;13082;52.374;4.946;2022-10-31T05:45:07;12.50;99.90
25092;DHT22;13082;52.374;4.946;2022-10-31T05:47:32;12.50;99.90
25092;DHT22;13082;52.374;4.946;2022-10-31T05:49:58;12.60;99.90
25092;DHT22;13082;52.374;4.946;2022-10-31T05:52:24;12.70;99.90
25092;DHT22;13082;52.374;4.946;2022-10-31T05:54:49;12.70;99.90
25092;DHT22;13082;52.374;4.946;2022-10-31T05:57:15;12.70;99.90
25092;DHT22;13082;52.374;4.946;2022-10-31T05:59:40;12.70;99.90
25092;DHT22;13082;52.374;4.946;2022-10-31T06:02:06;12.60;99.90
25092;DHT22;13082;52.374;4.946;2022-10-31T06:04:31;12.60;99.90
25092;DHT22;13082;52.374;4.946;2022-10-31T06:06:57;12.50;99.90
25092;DHT22;13082;52.374;4.946;2022-10-31T06:09:23;12.40;99.90
25092;DHT22;13082;52.374;4.946;2022-10-31T06:11:48;12.40;99.90
25092;DHT22;13082;52.374;4.946;2022-10-31T06:14:14;12.40;99.90
25092;DHT22;13082;52.374;4.946;2022-10-31T06:16:39;12.40;99.90
25092;DHT22;13082;52.374;4.946;2022-10-31T06:19:05;12.40;99.90
25092;DHT22;13082;52.374;4.946;2022-10-31T06:21:31;12.40;99.90
25092;DHT22;13082;52.374;4.946;2022-10-31T06:23:56;12.40;99.90
25092;DHT22;13082;52.374;4.946;2022-10-31T06:26:22;12.40;99.90
25092;DHT22;13082;52.374;4.946;2022-10-31T06:28:47;12.40;99.90
25092;DHT22;13082;52.374;4.946;2022-10-31T06:31:13;12.50;99.90
25092;DHT22;13082;52.374;4.946;2022-10-31T06:33:41;12.50;99.90
25092;DHT22;13082;52.374;4.946;2022-10-31T06:36:07;12.50;99.90
25092;DHT22;13082;52.374;4.946;2022-10-31T06:38:33;12.50;99.90
25092;DHT22;13082;52.374;4.946;2022-10-31T06:41:02;12.50;99.90
25092;DHT22;13082;52.374;4.946;2022-10-31T06:43:28;12.50;99.90
25092;DHT22;13082;52.374;4.946;2022-10-31T06:45:54;12.40;99.90
25092;DHT22;13082;52.374;4.946;2022-10-31T06:48:19;12.50;99.90
25092;DHT22;13082;52.374;4.946;2022-10-31T06:50:45;12.50;99.90
25092;DHT22;13082;52.374;4.946;2022-10-31T06:53:11;12.40;99.90
25092;DHT22;13082;52.374;4.946;2022-10-31T06:55:36;12.40;99.90
25092;DHT22;13082;52.374;4.946;2022-10-31T06:58:02;12.40;99.90
25092;DHT22;13082;52.374;4.946;2022-10-31T07:00:29;12.30;99.90
25092;DHT22;13082;52.374;4.946;2022-10-31T07:03:02;12.40;99.90
25092;DHT22;13082;52.374;4.946;2022-10-31T07:05:29;12.40;99.90
25092;DHT22;13082;52.374;4.946;2022-10-31T07:07:58;12.30;99.90
25092;DHT22;13082;52.374;4.946;2022-10-31T07:10:25;12.30;99.90
25092;DHT22;13082;52.374;4.946;2022-10-31T07:12:55;12.30;99.90
25092;DHT22;13082;52.374;4.946;2022-10-31T07:15:22;12.30;99.90
25092;DHT22;13082;52.374;4.946;2022-10-31T07:17:47;12.30;99.90
25092;DHT22;13082;52.374;4.946;2022-10-31T07:20:13;12.40;99.90
25092;DHT22;13082;52.374;4.946;2022-10-31T07:22:39;12.40;99.90
25092;DHT22;13082;52.374;4.946;2022-10-31T07:25:04;12.40;99.90
25092;DHT22;13082;52.374;4.946;2022-10-31T07:27:40;12.40;99.90
25092;DHT22;13082;52.374;4.946;2022-10-31T07:30:07;12.40;99.90
25092;DHT22;13082;52.374;4.946;2022-10-31T07:32:43;12.30;99.90
25092;DHT22;13082;52.374;4.946;2022-10-31T07:35:10;12.30;99.90
25092;DHT22;13082;52.374;4.946;2022-10-31T07:37:36;12.30;99.90
25092;DHT22;13082;52.374;4.946;2022-10-31T07:40:03;12.30;99.90
25092;DHT22;13082;52.374;4.946;2022-10-31T07:42:34;12.40;99.90
25092;DHT22;13082;52.374;4.946;2022-10-31T07:44:59;12.40;99.90
25092;DHT22;13082;52.374;4.946;2022-10-31T07:47:25;12.50;99.90
25092;DHT22;13082;52.374;4.946;2022-10-31T07:49:50;12.50;99.90
25092;DHT22;13082;52.374;4.946;2022-10-31T07:52:16;12.60;99.90
25092;DHT22;13082;52.374;4.946;2022-10-31T07:54:41;12.80;99.90
25092;DHT22;13082;52.374;4.946;2022-10-31T07:57:07;12.90;99.90
25092;DHT22;13082;52.374;4.946;2022-10-31T07:59:32;13.00;99.90
25092;DHT22;13082;52.374;4.946;2022-10-31T08:01:58;13.10;99.90
25092;DHT22;13082;52.374;4.946;2022-10-31T08:04:23;13.10;99.90
25092;DHT22;13082;52.374;4.946;2022-10-31T08:06:49;13.10;99.90
25092;DHT22;13082;52.374;4.946;2022-10-31T08:09:14;13.20;99.90
25092;DHT22;13082;52.374;4.946;2022-10-31T08:11:40;13.30;99.90
25092;DHT22;13082;52.374;4.946;2022-10-31T08:14:06;13.20;99.90
25092;DHT22;13082;52.374;4.946;2022-10-31T08:16:31;13.20;99.90
25092;DHT22;13082;52.374;4.946;2022-10-31T08:18:57;13.20;99.90
25092;DHT22;13082;52.374;4.946;2022-10-31T08:21:22;13.20;99.90
25092;DHT22;13082;52.374;4.946;2022-10-31T08:23:48;13.20;99.90
25092;DHT22;13082;52.374;4.946;2022-10-31T08:26:13;13.20;99.90
25092;DHT22;13082;52.374;4.946;2022-10-31T08:28:39;13.30;99.90
25092;DHT22;13082;52.374;4.946;2022-10-31T08:31:05;13.30;99.90
25092;DHT22;13082;52.374;4.946;2022-10-31T08:33:31;13.30;99.90
25092;DHT22;13082;52.374;4.946;2022-10-31T08:36:00;13.30;99.90
25092;DHT22;13082;52.374;4.946;2022-10-31T08:38:25;13.30;99.90
25092;DHT22;13082;52.374;4.946;2022-10-31T08:40:51;13.30;99.90
25092;DHT22;13082;52.374;4.946;2022-10-31T08:43:17;13.40;99.90
25092;DHT22;13082;52.374;4.946;2022-10-31T08:45:47;13.40;99.90
25092;DHT22;13082;52.374;4.946;2022-10-31T08:48:15;13.50;99.90
25092;DHT22;13082;52.374;4.946;2022-10-31T08:50:41;13.50;99.90
25092;DHT22;13082;52.374;4.946;2022-10-31T08:53:13;13.60;99.90
25092;DHT22;13082;52.374;4.946;2022-10-31T08:55:39;13.70;99.90
25092;DHT22;13082;52.374;4.946;2022-10-31T08:58:08;13.90;99.90
25092;DHT22;13082;52.374;4.946;2022-10-31T09:00:34;14.00;99.90
25092;DHT22;13082;52.374;4.946;2022-10-31T09:03:03;14.10;99.90
25092;DHT22;13082;52.374;4.946;2022-10-31T09:05:29;14.10;99.90
25092;DHT22;13082;52.374;4.946;2022-10-31T09:07:58;14.20;99.90
25092;DHT22;13082;52.374;4.946;2022-10-31T09:10:26;14.30;99.90
25092;DHT22;13082;52.374;4.946;2022-10-31T09:12:56;14.30;99.90
25092;DHT22;13082;52.374;4.946;2022-10-31T09:15:22;14.30;99.90
25092;DHT22;13082;52.374;4.946;2022-10-31T09:17:48;14.30;99.90
25092;DHT22;13082;52.374;4.946;2022-10-31T09:20:14;14.30;99.90
25092;DHT22;13082;52.374;4.946;2022-10-31T09:22:39;14.20;99.90
25092;DHT22;13082;52.374;4.946;2022-10-31T09:25:05;14.20;99.90
25092;DHT22;13082;52.374;4.946;2022-10-31T09:27:31;14.30;99.90
25092;DHT22;13082;52.374;4.946;2022-10-31T09:29:56;14.30;99.90
25092;DHT22;13082;52.374;4.946;2022-10-31T09:32:22;14.40;99.90
25092;DHT22;13082;52.374;4.946;2022-10-31T09:34:47;14.40;99.90
25092;DHT22;13082;52.374;4.946;2022-10-31T09:37:13;14.60;99.90
25092;DHT22;13082;52.374;4.946;2022-10-31T09:39:38;14.60;99.90
25092;DHT22;13082;52.374;4.946;2022-10-31T09:44:48;14.70;99.90
25092;DHT22;13082;52.374;4.946;2022-10-31T09:50:22;14.60;99.90
25092;DHT22;13082;52.374;4.946;2022-10-31T09:55:35;14.60;99.90
25092;DHT22;13082;52.374;4.946;2022-10-31T09:58:02;14.50;99.90
25092;DHT22;13082;52.374;4.946;2022-10-31T10:00:29;14.60;99.90
25092;DHT22;13082;52.374;4.946;2022-10-31T10:05:53;14.60;99.90
25092;DHT22;13082;52.374;4.946;2022-10-31T10:08:21;14.70;99.90
25092;DHT22;13082;52.374;4.946;2022-10-31T10:27:11;14.50;99.90
25092;DHT22;13082;52.374;4.946;2022-10-31T10:32:24;14.60;99.90
25092;DHT22;13082;52.374;4.946;2022-10-31T10:34:53;14.60;99.90
25092;DHT22;13082;52.374;4.946;2022-10-31T10:38:00;14.60;99.90
25092;DHT22;13082;52.374;4.946;2022-10-31T10:40:24;14.70;99.90
25092;DHT22;13082;52.374;4.946;2022-10-31T10:52:08;15.00;99.90
25092;DHT22;13082;52.374;4.946;2022-10-31T10:54:56;15.10;99.90
25092;DHT22;13082;52.374;4.946;2022-10-31T10:58:16;15.20;99.90
25092;DHT22;13082;52.374;4.946;2022-10-31T11:00:46;15.20;99.90
25092;DHT22;13082;52.374;4.946;2022-10-31T11:03:13;15.20;99.90
25092;DHT22;13082;52.374;4.946;2022-10-31T11:05:46;15.30;99.90
25092;DHT22;13082;52.374;4.946;2022-10-31T11:08:32;15.40;99.90
25092;DHT22;13082;52.374;4.946;2022-10-31T11:13:26;15.60;99.90
25092;DHT22;13082;52.374;4.946;2022-10-31T11:16:09;15.60;99.90
25092;DHT22;13082;52.374;4.946;2022-10-31T11:18:39;15.80;99.90
25092;DHT22;13082;52.374;4.946;2022-10-31T11:21:05;15.90;99.90
25092;DHT22;13082;52.374;4.946;2022-10-31T11:23:32;16.00;99.90
25092;DHT22;13082;52.374;4.946;2022-10-31T11:26:00;16.00;99.90
25092;DHT22;13082;52.374;4.946;2022-10-31T11:28:28;16.00;99.90
25092;DHT22;13082;52.374;4.946;2022-10-31T11:31:06;16.00;99.90
25092;DHT22;13082;52.374;4.946;2022-10-31T11:33:46;15.90;99.90
25092;DHT22;13082;52.374;4.946;2022-10-31T11:36:22;15.90;99.90
25092;DHT22;13082;52.374;4.946;2022-10-31T11:38:48;15.80;99.90
25092;DHT22;13082;52.374;4.946;2022-10-31T11:41:29;15.80;99.90
25092;DHT22;13082;52.374;4.946;2022-10-31T11:43:57;15.80;99.90
25092;DHT22;13082;52.374;4.946;2022-10-31T11:46:50;15.80;99.90
25092;DHT22;13082;52.374;4.946;2022-10-31T11:49:28;15.90;99.90
25092;DHT22;13082;52.374;4.946;2022-10-31T11:51:57;15.90;99.90
25092;DHT22;13082;52.374;4.946;2022-10-31T11:54:32;16.00;99.90
25092;DHT22;13082;52.374;4.946;2022-10-31T11:56:58;16.10;99.90
25092;DHT22;13082;52.374;4.946;2022-10-31T11:59:29;16.20;99.90
25092;DHT22;13082;52.374;4.946;2022-10-31T12:01:57;16.30;99.90
25092;DHT22;13082;52.374;4.946;2022-10-31T12:04:44;16.40;99.90
25092;DHT22;13082;52.374;4.946;2022-10-31T12:07:11;16.50;99.90
25092;DHT22;13082;52.374;4.946;2022-10-31T12:09:38;16.60;99.90
25092;DHT22;13082;52.374;4.946;2022-10-31T12:17:18;16.70;99.90
25092;DHT22;13082;52.374;4.946;2022-10-31T12:30:20;16.60;99.90
25092;DHT22;13082;52.374;4.946;2022-10-31T12:38:54;16.60;99.90
25092;DHT22;13082;52.374;4.946;2022-10-31T12:41:57;16.60;99.90
25092;DHT22;13082;52.374;4.946;2022-10-31T12:44:50;16.60;99.90
25092;DHT22;13082;52.374;4.946;2022-10-31T12:47:40;16.60;99.90
25092;DHT22;13082;52.374;4.946;2022-10-31T12:58:47;17.20;99.90
25092;DHT22;13082;52.374;4.946;2022-10-31T13:01:35;17.20;99.90
25092;DHT22;13082;52.374;4.946;2022-10-31T13:04:19;17.30;99.90
25092;DHT22;13082;52.374;4.946;2022-10-31T13:06:54;17.30;99.90
25092;DHT22;13082;52.374;4.946;2022-10-31T13:09:27;17.20;99.90
25092;DHT22;13082;52.374;4.946;2022-10-31T13:12:01;17.10;99.90
25092;DHT22;13082;52.374;4.946;2022-10-31T13:14:38;16.90;99.90
25092;DHT22;13082;52.374;4.946;2022-10-31T13:17:05;16.80;99.90
25092;DHT22;13082;52.374;4.946;2022-10-31T13:19:36;16.70;99.90
25092;DHT22;13082;52.374;4.946;2022-10-31T13:22:16;16.70;99.90
25092;DHT22;13082;52.374;4.946;2022-10-31T13:25:03;16.60;99.90
25092;DHT22;13082;52.374;4.946;2022-10-31T13:30:18;16.50;99.90
25092;DHT22;13082;52.374;4.946;2022-10-31T13:32:51;16.40;99.90
25092;DHT22;13082;52.374;4.946;2022-10-31T13:38:00;16.20;99.90
25092;DHT22;13082;52.374;4.946;2022-10-31T13:40:58;16.20;99.90
25092;DHT22;13082;52.374;4.946;2022-10-31T13:45:53;16.00;99.90
25092;DHT22;13082;52.374;4.946;2022-10-31T13:48:34;16.00;99.90
25092;DHT22;13082;52.374;4.946;2022-10-31T13:51:09;15.90;99.90
25092;DHT22;13082;52.374;4.946;2022-10-31T13:54:01;15.90;99.90
25092;DHT22;13082;52.374;4.946;2022-10-31T13:56:32;15.90;99.90
25092;DHT22;13082;52.374;4.946;2022-10-31T14:01:26;16.00;99.90
25092;DHT22;13082;52.374;4.946;2022-10-31T14:06:38;15.90;99.90
25092;DHT22;13082;52.374;4.946;2022-10-31T14:09:05;15.90;99.90
25092;DHT22;13082;52.374;4.946;2022-10-31T14:11:45;15.90;99.90
25092;DHT22;13082;52.374;4.946;2022-10-31T14:14:11;15.90;99.90
25092;DHT22;13082;52.374;4.946;2022-10-31T14:16:38;15.90;99.90
25092;DHT22;13082;52.374;4.946;2022-10-31T14:19:08;15.90;99.90
25092;DHT22;13082;52.374;4.946;2022-10-31T14:21:41;15.90;99.90
25092;DHT22;13082;52.374;4.946;2022-10-31T14:26:54;15.80;99.90
25092;DHT22;13082;52.374;4.946;2022-10-31T14:29:21;15.80;99.90
25092;DHT22;13082;52.374;4.946;2022-10-31T14:34:27;15.80;99.90
25092;DHT22;13082;52.374;4.946;2022-10-31T14:53:31;15.90;99.90
25092;DHT22;13082;52.374;4.946;2022-10-31T14:55:59;15.80;99.90
25092;DHT22;13082;52.374;4.946;2022-10-31T15:01:03;15.80;99.90
25092;DHT22;13082;52.374;4.946;2022-10-31T15:03:33;15.80;99.90
25092;DHT22;13082;52.374;4.946;2022-10-31T15:06:10;15.80;99.90
25092;DHT22;13082;52.374;4.946;2022-10-31T15:11:28;15.80;99.90
25092;DHT22;13082;52.374;4.946;2022-10-31T15:13:55;15.90;99.90
25092;DHT22;13082;52.374;4.946;2022-10-31T15:16:24;15.80;99.90
25092;DHT22;13082;52.374;4.946;2022-10-31T15:19:02;15.80;99.90
25092;DHT22;13082;52.374;4.946;2022-10-31T15:21:28;15.80;99.90
25092;DHT22;13082;52.374;4.946;2022-10-31T15:23:56;15.80;99.90
25092;DHT22;13082;52.374;4.946;2022-10-31T15:26:38;15.80;99.90
25092;DHT22;13082;52.374;4.946;2022-10-31T15:29:15;15.80;99.90
25092;DHT22;13082;52.374;4.946;2022-10-31T15:31:55;15.70;99.90
25092;DHT22;13082;52.374;4.946;2022-10-31T15:34:46;15.70;99.90
25092;DHT22;13082;52.374;4.946;2022-10-31T15:37:17;15.70;99.90
25092;DHT22;13082;52.374;4.946;2022-10-31T15:39:44;15.70;99.90
25092;DHT22;13082;52.374;4.946;2022-10-31T15:42:22;15.70;99.90
25092;DHT22;13082;52.374;4.946;2022-10-31T15:45:02;15.70;99.90
25092;DHT22;13082;52.374;4.946;2022-10-31T15:47:30;15.70;99.90
25092;DHT22;13082;52.374;4.946;2022-10-31T15:49:57;15.70;99.90
25092;DHT22;13082;52.374;4.946;2022-10-31T15:52:39;15.60;99.90
25092;DHT22;13082;52.374;4.946;2022-10-31T15:57:40;15.60;99.90
25092;DHT22;13082;52.374;4.946;2022-10-31T16:02:47;15.60;99.90
25092;DHT22;13082;52.374;4.946;2022-10-31T16:05:19;15.60;99.90
25092;DHT22;13082;52.374;4.946;2022-10-31T16:07:49;15.60;99.90
25092;DHT22;13082;52.374;4.946;2022-10-31T16:10:24;15.50;99.90
25092;DHT22;13082;52.374;4.946;2022-10-31T16:12:50;15.50;99.90
25092;DHT22;13082;52.374;4.946;2022-10-31T16:15:18;15.50;99.90
25092;DHT22;13082;52.374;4.946;2022-10-31T16:17:49;15.50;99.90
25092;DHT22;13082;52.374;4.946;2022-10-31T16:20:19;15.50;99.90
25092;DHT22;13082;52.374;4.946;2022-10-31T16:22:49;15.50;99.90
25092;DHT22;13082;52.374;4.946;2022-10-31T16:25:21;15.50;99.90
25092;DHT22;13082;52.374;4.946;2022-10-31T16:27:52;15.40;99.90
25092;DHT22;13082;52.374;4.946;2022-10-31T16:30:39;15.40;99.90
25092;DHT22;13082;52.374;4.946;2022-10-31T16:33:20;15.40;99.90
25092;DHT22;13082;52.374;4.946;2022-10-31T16:35:47;15.40;99.90
25092;DHT22;13082;52.374;4.946;2022-10-31T16:38:13;15.40;99.90
25092;DHT22;13082;52.374;4.946;2022-10-31T16:40:39;15.40;99.90
25092;DHT22;13082;52.374;4.946;2022-10-31T16:43:11;15.40;99.90
25092;DHT22;13082;52.374;4.946;2022-10-31T16:45:45;15.40;99.90
25092;DHT22;13082;52.374;4.946;2022-10-31T16:48:19;15.40;99.90
25092;DHT22;13082;52.374;4.946;2022-10-31T16:50:47;15.40;99.90
25092;DHT22;13082;52.374;4.946;2022-10-31T16:53:13;15.30;99.90
25092;DHT22;13082;52.374;4.946;2022-10-31T16:55:57;15.40;99.90
25092;DHT22;13082;52.374;4.946;2022-10-31T16:58:33;15.30;99.90
25092;DHT22;13082;52.374;4.946;2022-10-31T17:01:01;15.30;99.90
25092;DHT22;13082;52.374;4.946;2022-10-31T17:03:27;15.30;99.90
25092;DHT22;13082;52.374;4.946;2022-10-31T17:05:53;15.30;99.90
25092;DHT22;13082;52.374;4.946;2022-10-31T17:08:20;15.30;99.90
25092;DHT22;13082;52.374;4.946;2022-10-31T17:10:47;15.30;99.90
25092;DHT22;13082;52.374;4.946;2022-10-31T17:13:27;15.30;99.90
25092;DHT22;13082;52.374;4.946;2022-10-31T17:15:56;15.30;99.90
25092;DHT22;13082;52.374;4.946;2022-10-31T17:18:22;15.40;99.90
25092;DHT22;13082;52.374;4.946;2022-10-31T17:20:49;15.40;99.90
25092;DHT22;13082;52.374;4.946;2022-10-31T17:23:15;15.40;99.90
25092;DHT22;13082;52.374;4.946;2022-10-31T17:25:42;15.40;99.90
25092;DHT22;13082;52.374;4.946;2022-10-31T17:28:11;15.40;99.90
25092;DHT22;13082;52.374;4.946;2022-10-31T17:30:38;15.40;99.90
25092;DHT22;13082;52.374;4.946;2022-10-31T17:33:05;15.40;99.90
25092;DHT22;13082;52.374;4.946;2022-10-31T17:35:30;15.40;99.90
25092;DHT22;13082;52.374;4.946;2022-10-31T17:37:56;15.40;99.90
25092;DHT22;13082;52.374;4.946;2022-10-31T17:40:22;15.40;99.90
25092;DHT22;13082;52.374;4.946;2022-10-31T17:42:53;15.40;99.90
25092;DHT22;13082;52.374;4.946;2022-10-31T17:45:20;15.40;99.90
25092;DHT22;13082;52.374;4.946;2022-10-31T17:47:47;15.40;99.90
25092;DHT22;13082;52.374;4.946;2022-10-31T17:50:16;15.30;99.90
25092;DHT22;13082;52.374;4.946;2022-10-31T17:52:42;15.30;99.90
25092;DHT22;13082;52.374;4.946;2022-10-31T17:55:08;15.30;99.90
25092;DHT22;13082;52.374;4.946;2022-10-31T17:57:35;15.30;99.90
25092;DHT22;13082;52.374;4.946;2022-10-31T18:00:05;15.30;99.90
25092;DHT22;13082;52.374;4.946;2022-10-31T18:02:31;15.20;99.90
25092;DHT22;13082;52.374;4.946;2022-10-31T18:04:57;15.20;99.90
25092;DHT22;13082;52.374;4.946;2022-10-31T18:07:22;15.20;99.90
25092;DHT22;13082;52.374;4.946;2022-10-31T18:09:48;15.20;99.90
25092;DHT22;13082;52.374;4.946;2022-10-31T18:12:14;15.20;99.90
25092;DHT22;13082;52.374;4.946;2022-10-31T18:14:41;15.10;99.90